Main page
METAR-TAF:

METAR-TAF

Airports :

Agra Airport

Agra, India

latitude: 27-09-27N, longitude: 077-57-39E, elevation: 168 m

Current weather observation

The report was made 47 minutes ago, at 07:30 UTC
Wind 5 kt from the South
Temperature 35°C
Humidity 53%
Pressure 998 hPa
Visibility: 6000 m
Scattered clouds at a height of 3000 ft
Broken clouds at a height of 25000 ft

METAR: VIAG 110730Z 17005KT 6000 SCT030 BKN250 35/24 Q0998 NOSIG

Time: 13:47 (08:17 UTC)

Forecast

The report was made 4 hours and 47 minutes ago, at 03:30 UTC
Forecast valid from 11 at 06 UTC to 11 at 18 UTC
Wind 10 kt from the West/Southwest
Visibility: 6000 m
Scattered clouds at a height of 2500 ft
Scattered clouds at a height of 20000 ft
Temporary
from 11 at 06 UTC to 11 at 12 UTC
Wind 10 kt from the West/Northwest with gusts up to 20 kt
Visibility: 6000 m
Scattered clouds at a height of 2500 ft
Broken clouds at a height of 8000 ft

TAF: VIAG 110330Z 1106/1118 24010KT 6000 SCT025 SCT200 TEMPO 1106/1112 29010G20KT 6000 TS/RA SCT025 FEW030TCU/CB BKN080

Weather observations and forecasts of more than 4000 airports (METAR and TAF reports).

The available stations are represented by yellow and red dots on the map.

Hover mouse over dot to see the name of the station.

Then click to see weather observations and forecasts.

To change the map : click on the green buttons with a black cross to zoom in, on the green button with a dash to zoom out, or on the green arrows for adjacent maps.


METAR-TAF: